EDT,Max TemperatureF,Mean TemperatureF,Min TemperatureF,Max Dew PointF,MeanDew PointF,Min DewpointF,Max Humidity, Mean Humidity, Min Humidity, Max Sea Level PressureIn, Mean Sea Level PressureIn, Min Sea Level PressureIn, Max VisibilityMiles, Mean VisibilityMiles, Min VisibilityMiles, Max Wind SpeedMPH, Mean Wind SpeedMPH, Max Gust SpeedMPH,PrecipitationIn, CloudCover, Events, WindDirDegrees
2013-3-1,46,37,28,32,26,23,92,65,44,29.71,29.63,29.55,10,9,6,14,4,18,0.00,7,,329
2013-3-2,39,36,34,24,23,22,67,59,53,29.72,29.69,29.65,10,10,10,10,7,,0.00,8,,309
2013-3-3,37,34,30,26,22,19,82,68,57,29.68,29.65,29.60,10,9,3,12,7,,0.00,8,Snow,308
2013-3-4,37,32,27,20,18,17,66,58,48,29.80,29.71,29.67,10,10,10,21,12,30,0.00,5,,304
2013-3-5,46,37,28,26,22,18,79,58,41,30.06,29.97,29.83,10,10,10,13,6,17,0.00,5,,358
2013-3-6,41,36,32,34,30,26,87,75,60,30.04,30.00,29.96,10,9,4,25,11,37,0.01,8,Rain,52
2013-3-7,37,34,32,28,27,25,87,76,60,30.03,29.98,29.94,10,4,1,26,19,41,0.05,8,Snow,17
2013-3-8,37,34,30,30,28,21,93,84,59,30.15,29.99,29.93,10,3,0,14,10,22,0.47,7,Fog-Snow,8
2013-3-9,52,40,26,24,19,12,81,52,21,30.35,30.23,30.15,10,10,10,10,5,22,0.00,0,,25
2013-3-10,48,34,19,30,24,12,92,69,39,30.40,30.36,30.31,10,9,6,10,2,,0.00,1,,184
2013-3-11,51,43,35,39,35,30,87,75,56,30.34,30.25,30.15,10,9,5,10,4,17,0.00,6,,191
2013-3-12,54,48,42,51,46,37,90,84,72,30.14,29.90,29.73,10,6,2,17,7,26,0.79,7,Rain,177
2013-3-13,50,40,30,36,25,19,79,55,32,29.83,29.80,29.75,10,10,10,17,7,25,0.00,2,,307
2013-3-14,37,32,26,24,14,6,66,52,35,29.88,29.83,29.79,10,9,2,22,10,36,0.00,7,Snow,302
2013-3-15,42,34,26,26,13,3,70,45,27,29.91,29.80,29.69,10,10,5,15,10,25,0.00,4,Snow,269
2013-3-16,37,32,28,25,14,3,72,45,25,29.88,29.82,29.75,10,10,10,12,6,23,0.00,5,,308
2013-3-17,37,32,26,24,8,0,73,38,21,30.31,30.08,29.90,10,10,10,20,7,29,0.00,0,,312
2013-3-18,37,28,18,27,11,-2,93,53,20,30.45,30.33,30.17,10,8,0,15,4,16,0.16,3,Fog-Snow,76
2013-3-19,37,34,30,34,30,27,93,89,82,30.13,29.83,29.62,10,5,1,16,9,23,0.46,8,Rain-Snow,33
2013-3-20,39,32,26,28,19,14,82,60,38,29.83,29.79,29.72,10,10,10,16,7,25,0.00,3,,282
2013-3-21,36,30,26,27,23,13,88,75,47,29.84,29.71,29.63,10,6,1,10,3,,0.00,8,Snow,348
2013-3-22,41,32,25,21,16,11,61,50,38,29.80,29.72,29.66,10,10,10,15,8,23,0.00,3,,288
2013-3-23,43,38,32,24,19,14,73,52,32,29.86,29.79,29.73,10,9,2,21,10,34,0.00,4,Snow,291
2013-3-24,48,38,30,25,21,19,64,50,34,29.88,29.81,29.72,10,10,10,14,7,21,0.00,1,,317
2013-3-25,45,37,30,28,26,24,82,64,47,29.76,29.60,29.47,10,10,10,20,7,31,0.00,4,,36
2013-3-26,46,38,28,27,25,19,78,57,37,29.82,29.71,29.55,10,10,10,14,6,18,0.00,6,,355
2013-3-27,51,36,21,29,23,18,89,56,29,29.90,29.84,29.80,10,10,9,17,4,29,0.00,4,,321
2013-3-28,50,42,33,36,30,26,89,65,41,30.05,29.96,29.90,10,10,10,10,4,17,0.00,7,Rain,332
2013-3-29,55,42,30,35,29,25,89,56,33,30.08,30.05,30.00,10,10,10,12,4,20,0.00,4,,310
2013-3-30,57,44,33,30,22,15,78,44,20,30.12,30.08,30.03,10,10,10,14,4,21,0.00,2,,306
2013-3-31,57,40,26,43,29,21,93,62,27,30.14,29.99,29.68,10,9,4,18,4,28,0.07,3,Rain,170